CDT,Max TemperatureF,Mean TemperatureF,Min TemperatureF,Max Dew PointF,MeanDew PointF,Min DewpointF,Max Humidity, Mean Humidity, Min Humidity, Max Sea Level PressureIn, Mean Sea Level PressureIn, Min Sea Level PressureIn, Max VisibilityMiles, Mean VisibilityMiles, Min VisibilityMiles, Max Wind SpeedMPH, Mean Wind SpeedMPH, Max Gust SpeedMPH,PrecipitationIn, CloudCover, Events, WindDirDegrees
2013-10-1,82,76,69,72,69,66,100,86,66,30.05,30.00,29.95,10,8,2,14,7,17,0.00,6,,161
2013-10-2,69,69,68,66,66,66,94,91,88,30.03,30.02,30.02,8,8,7,6,4,,0.00,0,,140
2013-10-3,,,,,,,,,,,,,,,,,,,,,,
2013-10-4,84,72,59,73,72,68,100,83,66,30.03,29.98,29.94,10,10,8,21,9,25,0.00,4,,171
2013-10-5,,,,,,,,,,,,,,,,,,,0.00,,,-1
2013-10-6,,,,,,,,,,,,,,,,,,,,,,
2013-10-7,,,,,,,,,,,,,,,,,,,0.00,,,-1
2013-10-8,,,,,,,,,,,,,,,,,,,,,,
2013-10-9,,,,,,,,,,,,,,,,,,,,,,
2013-10-10,,,,,,,,,,,,,,,,,,,,,,
2013-10-11,80,71,62,63,61,59,88,70,51,30.06,29.99,29.94,10,10,10,13,5,18,0.00,1,,183
2013-10-12,77,68,60,66,63,57,100,89,69,30.16,30.04,29.97,10,8,2,16,3,25,0.45,3,Thunderstorm,111
2013-10-13,73,64,55,63,52,46,100,68,38,30.32,30.26,30.17,10,9,3,17,8,22,0.00,0,,20
2013-10-14,73,62,51,61,49,46,82,76,61,30.27,30.17,30.05,10,8,0,10,7,,0.00,0,,48
2013-10-15,69,66,64,66,65,63,100,95,83,30.04,29.97,29.91,10,7,2,14,5,,0.93,7,,178
2013-10-16,64,58,51,63,51,46,94,80,59,30.07,30.01,29.97,10,10,1,14,8,17,0.05,6,,318
2013-10-17,66,58,50,54,48,45,94,75,49,30.05,30.00,29.97,10,10,7,14,6,,0.05,4,,295
2013-10-18,68,57,46,55,49,45,100,76,46,30.08,30.01,29.96,10,10,8,15,2,,0.01,2,,246
2013-10-19,59,52,46,52,42,36,100,72,42,30.11,30.04,29.95,10,10,6,20,9,22,0.05,3,,306
2013-10-20,66,54,41,46,43,39,93,73,43,30.09,30.03,29.97,10,10,10,16,7,22,0.00,0,,189
2013-10-21,66,56,46,52,48,43,94,81,56,30.08,30.03,29.99,10,10,9,16,6,,0.03,5,,247
2013-10-22,66,52,39,48,43,37,100,69,42,30.11,30.01,29.89,10,10,10,15,7,20,0.03,2,,269
2013-10-23,57,48,39,45,39,36,93,69,44,30.18,30.10,29.99,10,10,1,12,7,16,0.00,1,,316
2013-10-24,57,48,37,46,37,28,93,67,36,30.43,30.25,30.11,10,10,2,17,7,22,0.00,2,,351
2013-10-25,51,42,32,36,30,27,87,65,38,30.55,30.45,30.31,10,10,8,9,5,,0.00,0,,40
2013-10-26,68,52,37,48,41,34,93,72,49,30.30,30.17,30.07,10,10,10,16,7,20,0.00,1,,192
2013-10-27,57,52,48,48,42,36,88,67,54,30.12,30.08,30.03,10,10,10,15,5,18,0.00,7,,20
2013-10-28,64,52,41,55,48,39,100,87,68,30.23,30.17,30.07,10,7,0,7,2,,0.00,2,,163
2013-10-29,66,57,48,64,58,46,100,94,88,30.22,30.15,30.07,10,7,2,10,4,,0.14,6,,128
2013-10-30,73,68,62,66,64,63,100,88,73,30.12,30.05,29.92,10,10,10,22,10,28,0.00,5,,181
2013-10-31,71,64,55,68,63,50,100,88,64,29.92,29.66,29.48,10,9,4,26,15,34,0.46,6,,202